sensor_id;sensor_type;location;lat;lon;timestamp;P1;durP1;ratioP1;P2;durP2;ratioP2
14778;SDS011;7481;53.750;10.570;2022-12-10T00:02:28;23.37;;;12.73;;
14778;SDS011;7481;53.750;10.570;2022-12-10T00:05:16;21.93;;;11.97;;
14778;SDS011;7481;53.750;10.570;2022-12-10T00:08:03;22.83;;;11.80;;
14778;SDS011;7481;53.750;10.570;2022-12-10T00:10:51;23.50;;;12.30;;
14778;SDS011;7481;53.750;10.570;2022-12-10T00:13:38;21.57;;;12.10;;
14778;SDS011;7481;53.750;10.570;2022-12-10T00:16:26;24.80;;;13.17;;
14778;SDS011;7481;53.750;10.570;2022-12-10T00:19:14;23.23;;;11.93;;
14778;SDS011;7481;53.750;10.570;2022-12-10T00:22:01;22.00;;;11.50;;
14778;SDS011;7481;53.750;10.570;2022-12-10T00:24:48;24.40;;;12.40;;
14778;SDS011;7481;53.750;10.570;2022-12-10T00:27:35;22.40;;;12.07;;
14778;SDS011;7481;53.750;10.570;2022-12-10T00:30:22;24.87;;;12.33;;
14778;SDS011;7481;53.750;10.570;2022-12-10T00:33:09;23.37;;;12.17;;
14778;SDS011;7481;53.750;10.570;2022-12-10T00:35:56;23.57;;;12.37;;
14778;SDS011;7481;53.750;10.570;2022-12-10T00:38:52;25.70;;;12.27;;
14778;SDS011;7481;53.750;10.570;2022-12-10T00:41:39;27.27;;;13.73;;
14778;SDS011;7481;53.750;10.570;2022-12-10T00:44:26;23.20;;;12.43;;
14778;SDS011;7481;53.750;10.570;2022-12-10T00:47:13;21.47;;;12.33;;
14778;SDS011;7481;53.750;10.570;2022-12-10T00:50:00;23.20;;;11.83;;
14778;SDS011;7481;53.750;10.570;2022-12-10T00:52:47;24.73;;;13.63;;
14778;SDS011;7481;53.750;10.570;2022-12-10T00:55:34;27.53;;;13.90;;
14778;SDS011;7481;53.750;10.570;2022-12-10T00:58:21;25.17;;;13.63;;
14778;SDS011;7481;53.750;10.570;2022-12-10T01:01:13;26.73;;;13.60;;
14778;SDS011;7481;53.750;10.570;2022-12-10T01:04:07;28.77;;;14.27;;
14778;SDS011;7481;53.750;10.570;2022-12-10T01:06:56;26.40;;;13.67;;
14778;SDS011;7481;53.750;10.570;2022-12-10T01:09:45;22.20;;;12.27;;
14778;SDS011;7481;53.750;10.570;2022-12-10T01:12:32;24.63;;;12.90;;
14778;SDS011;7481;53.750;10.570;2022-12-10T01:15:19;28.07;;;13.57;;
14778;SDS011;7481;53.750;10.570;2022-12-10T01:18:06;25.20;;;13.47;;
14778;SDS011;7481;53.750;10.570;2022-12-10T01:20:53;20.90;;;11.90;;
14778;SDS011;7481;53.750;10.570;2022-12-10T01:23:42;24.50;;;11.90;;
14778;SDS011;7481;53.750;10.570;2022-12-10T01:26:31;26.97;;;12.10;;
14778;SDS011;7481;53.750;10.570;2022-12-10T01:29:18;24.93;;;12.53;;
14778;SDS011;7481;53.750;10.570;2022-12-10T01:32:05;26.57;;;11.43;;
14778;SDS011;7481;53.750;10.570;2022-12-10T01:34:53;23.30;;;11.77;;
14778;SDS011;7481;53.750;10.570;2022-12-10T01:37:40;21.37;;;10.90;;
14778;SDS011;7481;53.750;10.570;2022-12-10T01:40:28;21.97;;;10.70;;
14778;SDS011;7481;53.750;10.570;2022-12-10T01:43:15;22.43;;;11.50;;
14778;SDS011;7481;53.750;10.570;2022-12-10T01:46:02;23.23;;;11.80;;
14778;SDS011;7481;53.750;10.570;2022-12-10T01:48:50;22.63;;;11.93;;
14778;SDS011;7481;53.750;10.570;2022-12-10T01:51:38;19.27;;;10.27;;
14778;SDS011;7481;53.750;10.570;2022-12-10T01:54:30;18.40;;;10.53;;
14778;SDS011;7481;53.750;10.570;2022-12-10T01:57:26;26.23;;;12.13;;
14778;SDS011;7481;53.750;10.570;2022-12-10T02:00:14;21.97;;;10.97;;
14778;SDS011;7481;53.750;10.570;2022-12-10T02:03:13;22.47;;;11.50;;
14778;SDS011;7481;53.750;10.570;2022-12-10T02:12:22;19.37;;;10.33;;
14778;SDS011;7481;53.750;10.570;2022-12-10T02:15:22;20.40;;;10.00;;
14778;SDS011;7481;53.750;10.570;2022-12-10T02:18:29;19.77;;;9.50;;
14778;SDS011;7481;53.750;10.570;2022-12-10T02:21:26;21.47;;;10.93;;
14778;SDS011;7481;53.750;10.570;2022-12-10T02:24:28;19.23;;;10.00;;
14778;SDS011;7481;53.750;10.570;2022-12-10T02:30:04;19.30;;;10.63;;
14778;SDS011;7481;53.750;10.570;2022-12-10T02:32:52;19.10;;;10.67;;
14778;SDS011;7481;53.750;10.570;2022-12-10T02:35:41;20.80;;;10.73;;
14778;SDS011;7481;53.750;10.570;2022-12-10T02:38:30;22.97;;;11.03;;
14778;SDS011;7481;53.750;10.570;2022-12-10T02:41:25;19.67;;;9.73;;
14778;SDS011;7481;53.750;10.570;2022-12-10T02:44:19;20.20;;;9.30;;
14778;SDS011;7481;53.750;10.570;2022-12-10T02:47:08;18.93;;;9.97;;
14778;SDS011;7481;53.750;10.570;2022-12-10T02:49:56;17.60;;;10.13;;
14778;SDS011;7481;53.750;10.570;2022-12-10T02:52:45;17.67;;;9.60;;
14778;SDS011;7481;53.750;10.570;2022-12-10T02:55:38;18.50;;;10.23;;
14778;SDS011;7481;53.750;10.570;2022-12-10T03:01:38;18.60;;;10.43;;
14778;SDS011;7481;53.750;10.570;2022-12-10T03:04:32;18.53;;;10.40;;
14778;SDS011;7481;53.750;10.570;2022-12-10T03:07:28;23.43;;;10.90;;
14778;SDS011;7481;53.750;10.570;2022-12-10T03:10:35;21.27;;;11.37;;
14778;SDS011;7481;53.750;10.570;2022-12-10T03:16:33;27.93;;;12.83;;
14778;SDS011;7481;53.750;10.570;2022-12-10T03:19:24;21.63;;;11.77;;
14778;SDS011;7481;53.750;10.570;2022-12-10T03:22:18;21.90;;;10.30;;
14778;SDS011;7481;53.750;10.570;2022-12-10T03:25:06;21.27;;;10.67;;
14778;SDS011;7481;53.750;10.570;2022-12-10T03:27:55;19.53;;;9.87;;
14778;SDS011;7481;53.750;10.570;2022-12-10T03:30:45;17.67;;;9.73;;
14778;SDS011;7481;53.750;10.570;2022-12-10T03:33:34;19.47;;;10.93;;
14778;SDS011;7481;53.750;10.570;2022-12-10T03:36:21;16.63;;;8.83;;
14778;SDS011;7481;53.750;10.570;2022-12-10T03:39:09;16.67;;;8.87;;
14778;SDS011;7481;53.750;10.570;2022-12-10T03:41:56;20.77;;;9.10;;
14778;SDS011;7481;53.750;10.570;2022-12-10T03:44:43;15.40;;;8.87;;
14778;SDS011;7481;53.750;10.570;2022-12-10T03:47:30;17.23;;;9.80;;
14778;SDS011;7481;53.750;10.570;2022-12-10T03:50:18;17.37;;;9.07;;
14778;SDS011;7481;53.750;10.570;2022-12-10T03:53:05;15.63;;;8.83;;
14778;SDS011;7481;53.750;10.570;2022-12-10T03:55:52;15.77;;;9.27;;
14778;SDS011;7481;53.750;10.570;2022-12-10T03:58:39;20.37;;;10.27;;
14778;SDS011;7481;53.750;10.570;2022-12-10T04:01:26;17.77;;;10.37;;
14778;SDS011;7481;53.750;10.570;2022-12-10T04:04:13;18.87;;;9.63;;
14778;SDS011;7481;53.750;10.570;2022-12-10T04:07:00;16.80;;;9.73;;
14778;SDS011;7481;53.750;10.570;2022-12-10T04:09:47;18.23;;;9.60;;
14778;SDS011;7481;53.750;10.570;2022-12-10T04:12:34;15.43;;;9.20;;
14778;SDS011;7481;53.750;10.570;2022-12-10T04:15:21;15.70;;;8.50;;
14778;SDS011;7481;53.750;10.570;2022-12-10T04:18:26;17.23;;;9.13;;
14778;SDS011;7481;53.750;10.570;2022-12-10T04:21:13;15.60;;;9.17;;
14778;SDS011;7481;53.750;10.570;2022-12-10T04:24:23;15.73;;;9.13;;
14778;SDS011;7481;53.750;10.570;2022-12-10T04:27:30;16.63;;;9.80;;
14778;SDS011;7481;53.750;10.570;2022-12-10T04:30:19;15.30;;;9.17;;
14778;SDS011;7481;53.750;10.570;2022-12-10T04:33:06;16.20;;;8.57;;
14778;SDS011;7481;53.750;10.570;2022-12-10T04:35:53;14.97;;;8.20;;
14778;SDS011;7481;53.750;10.570;2022-12-10T04:38:40;15.23;;;8.90;;
14778;SDS011;7481;53.750;10.570;2022-12-10T04:41:27;15.83;;;8.97;;
14778;SDS011;7481;53.750;10.570;2022-12-10T04:44:14;17.77;;;9.10;;
14778;SDS011;7481;53.750;10.570;2022-12-10T04:47:02;16.77;;;9.43;;
14778;SDS011;7481;53.750;10.570;2022-12-10T04:49:51;15.87;;;9.30;;
14778;SDS011;7481;53.750;10.570;2022-12-10T04:52:38;18.70;;;9.73;;
14778;SDS011;7481;53.750;10.570;2022-12-10T04:55:25;14.23;;;8.43;;
14778;SDS011;7481;53.750;10.570;2022-12-10T04:58:12;14.13;;;8.67;;
14778;SDS011;7481;53.750;10.570;2022-12-10T05:01:05;12.00;;;7.57;;
14778;SDS011;7481;53.750;10.570;2022-12-10T05:03:57;17.23;;;8.70;;
14778;SDS011;7481;53.750;10.570;2022-12-10T05:06:47;14.43;;;8.07;;
14778;SDS011;7481;53.750;10.570;2022-12-10T05:09:34;14.40;;;7.93;;
14778;SDS011;7481;53.750;10.570;2022-12-10T05:12:23;16.63;;;9.00;;
14778;SDS011;7481;53.750;10.570;2022-12-10T05:15:09;14.83;;;8.23;;
14778;SDS011;7481;53.750;10.570;2022-12-10T05:17:56;14.77;;;8.03;;
14778;SDS011;7481;53.750;10.570;2022-12-10T05:20:43;15.20;;;8.87;;
14778;SDS011;7481;53.750;10.570;2022-12-10T05:23:30;16.07;;;9.47;;
14778;SDS011;7481;53.750;10.570;2022-12-10T05:26:22;14.00;;;7.87;;
14778;SDS011;7481;53.750;10.570;2022-12-10T05:29:10;14.60;;;8.00;;
14778;SDS011;7481;53.750;10.570;2022-12-10T05:31:58;14.37;;;8.57;;
14778;SDS011;7481;53.750;10.570;2022-12-10T05:34:45;14.97;;;8.07;;
14778;SDS011;7481;53.750;10.570;2022-12-10T05:37:32;13.73;;;7.43;;
14778;SDS011;7481;53.750;10.570;2022-12-10T05:40:19;13.10;;;7.73;;
14778;SDS011;7481;53.750;10.570;2022-12-10T05:43:06;17.40;;;9.47;;
14778;SDS011;7481;53.750;10.570;2022-12-10T05:45:53;14.30;;;8.13;;
14778;SDS011;7481;53.750;10.570;2022-12-10T05:48:44;16.53;;;9.10;;
14778;SDS011;7481;53.750;10.570;2022-12-10T05:51:33;16.67;;;8.87;;
14778;SDS011;7481;53.750;10.570;2022-12-10T05:54:22;13.67;;;8.80;;
14778;SDS011;7481;53.750;10.570;2022-12-10T05:57:09;17.87;;;8.80;;
14778;SDS011;7481;53.750;10.570;2022-12-10T05:59:57;14.60;;;8.40;;
14778;SDS011;7481;53.750;10.570;2022-12-10T06:02:44;13.13;;;7.43;;
14778;SDS011;7481;53.750;10.570;2022-12-10T06:05:40;12.03;;;7.60;;
14778;SDS011;7481;53.750;10.570;2022-12-10T06:08:28;16.37;;;8.47;;
14778;SDS011;7481;53.750;10.570;2022-12-10T06:11:16;14.37;;;7.93;;
14778;SDS011;7481;53.750;10.570;2022-12-10T06:14:03;16.93;;;9.03;;
14778;SDS011;7481;53.750;10.570;2022-12-10T06:16:49;14.13;;;8.17;;
14778;SDS011;7481;53.750;10.570;2022-12-10T06:19:36;13.93;;;8.27;;
14778;SDS011;7481;53.750;10.570;2022-12-10T06:22:23;15.93;;;8.50;;
14778;SDS011;7481;53.750;10.570;2022-12-10T06:25:10;12.83;;;7.97;;
14778;SDS011;7481;53.750;10.570;2022-12-10T06:27:58;14.20;;;8.37;;
14778;SDS011;7481;53.750;10.570;2022-12-10T06:30:45;13.27;;;8.23;;
14778;SDS011;7481;53.750;10.570;2022-12-10T06:33:32;15.53;;;8.27;;
14778;SDS011;7481;53.750;10.570;2022-12-10T06:36:20;15.00;;;8.00;;
14778;SDS011;7481;53.750;10.570;2022-12-10T06:39:07;14.70;;;8.23;;
14778;SDS011;7481;53.750;10.570;2022-12-10T06:41:54;16.17;;;9.23;;
14778;SDS011;7481;53.750;10.570;2022-12-10T06:44:44;18.47;;;10.53;;
14778;SDS011;7481;53.750;10.570;2022-12-10T06:47:31;22.00;;;11.43;;
14778;SDS011;7481;53.750;10.570;2022-12-10T06:50:18;16.90;;;9.50;;
14778;SDS011;7481;53.750;10.570;2022-12-10T06:53:05;16.03;;;9.77;;
14778;SDS011;7481;53.750;10.570;2022-12-10T06:55:52;15.33;;;9.60;;
14778;SDS011;7481;53.750;10.570;2022-12-10T06:58:39;16.27;;;9.27;;
14778;SDS011;7481;53.750;10.570;2022-12-10T07:01:28;15.33;;;9.33;;
14778;SDS011;7481;53.750;10.570;2022-12-10T07:04:16;16.27;;;9.33;;
14778;SDS011;7481;53.750;10.570;2022-12-10T07:07:04;15.47;;;9.90;;
14778;SDS011;7481;53.750;10.570;2022-12-10T07:09:55;15.87;;;9.87;;
14778;SDS011;7481;53.750;10.570;2022-12-10T07:12:43;15.47;;;9.57;;
14778;SDS011;7481;53.750;10.570;2022-12-10T07:15:31;17.23;;;9.13;;
14778;SDS011;7481;53.750;10.570;2022-12-10T07:18:19;16.20;;;9.33;;
14778;SDS011;7481;53.750;10.570;2022-12-10T07:21:12;14.37;;;8.67;;
14778;SDS011;7481;53.750;10.570;2022-12-10T07:24:01;18.73;;;10.40;;
14778;SDS011;7481;53.750;10.570;2022-12-10T07:26:49;18.87;;;10.67;;
14778;SDS011;7481;53.750;10.570;2022-12-10T07:29:36;20.90;;;10.80;;
14778;SDS011;7481;53.750;10.570;2022-12-10T07:32:24;19.73;;;10.30;;
14778;SDS011;7481;53.750;10.570;2022-12-10T07:35:11;16.13;;;10.10;;
14778;SDS011;7481;53.750;10.570;2022-12-10T07:37:58;16.33;;;9.77;;
14778;SDS011;7481;53.750;10.570;2022-12-10T07:40:46;16.23;;;9.73;;
14778;SDS011;7481;53.750;10.570;2022-12-10T07:43:34;15.17;;;9.50;;
14778;SDS011;7481;53.750;10.570;2022-12-10T07:46:23;15.97;;;9.67;;
14778;SDS011;7481;53.750;10.570;2022-12-10T07:49:10;15.50;;;9.87;;
14778;SDS011;7481;53.750;10.570;2022-12-10T07:51:58;15.80;;;9.10;;
14778;SDS011;7481;53.750;10.570;2022-12-10T07:54:45;15.57;;;9.23;;
14778;SDS011;7481;53.750;10.570;2022-12-10T07:57:32;19.45;;;12.95;;
14778;SDS011;7481;53.750;10.570;2022-12-10T08:00:20;17.40;;;10.27;;
14778;SDS011;7481;53.750;10.570;2022-12-10T08:03:07;17.50;;;10.23;;
14778;SDS011;7481;53.750;10.570;2022-12-10T08:06:02;14.97;;;9.30;;
14778;SDS011;7481;53.750;10.570;2022-12-10T08:08:50;19.87;;;10.93;;
14778;SDS011;7481;53.750;10.570;2022-12-10T08:11:37;15.73;;;8.50;;
14778;SDS011;7481;53.750;10.570;2022-12-10T08:14:24;15.73;;;8.80;;
14778;SDS011;7481;53.750;10.570;2022-12-10T08:17:12;17.90;;;9.57;;
14778;SDS011;7481;53.750;10.570;2022-12-10T08:19:59;20.77;;;10.87;;
14778;SDS011;7481;53.750;10.570;2022-12-10T08:22:47;19.00;;;10.30;;
14778;SDS011;7481;53.750;10.570;2022-12-10T08:25:35;18.53;;;9.60;;
14778;SDS011;7481;53.750;10.570;2022-12-10T08:28:26;15.47;;;8.60;;
14778;SDS011;7481;53.750;10.570;2022-12-10T08:31:14;16.50;;;8.63;;
14778;SDS011;7481;53.750;10.570;2022-12-10T08:34:01;18.33;;;9.47;;
14778;SDS011;7481;53.750;10.570;2022-12-10T08:36:49;26.93;;;13.47;;
14778;SDS011;7481;53.750;10.570;2022-12-10T08:39:36;17.33;;;9.63;;
14778;SDS011;7481;53.750;10.570;2022-12-10T08:42:23;17.60;;;9.33;;
14778;SDS011;7481;53.750;10.570;2022-12-10T08:45:11;20.80;;;10.50;;
14778;SDS011;7481;53.750;10.570;2022-12-10T08:47:58;16.87;;;10.00;;
14778;SDS011;7481;53.750;10.570;2022-12-10T08:50:46;19.57;;;10.10;;
14778;SDS011;7481;53.750;10.570;2022-12-10T08:53:33;18.10;;;9.63;;
14778;SDS011;7481;53.750;10.570;2022-12-10T08:56:21;17.73;;;8.80;;
14778;SDS011;7481;53.750;10.570;2022-12-10T08:59:08;20.73;;;10.27;;
14778;SDS011;7481;53.750;10.570;2022-12-10T09:01:56;19.20;;;9.63;;
14778;SDS011;7481;53.750;10.570;2022-12-10T09:04:43;18.00;;;10.17;;
14778;SDS011;7481;53.750;10.570;2022-12-10T09:07:32;18.70;;;10.50;;
14778;SDS011;7481;53.750;10.570;2022-12-10T09:10:19;16.67;;;9.67;;
14778;SDS011;7481;53.750;10.570;2022-12-10T09:13:08;15.73;;;9.00;;
14778;SDS011;7481;53.750;10.570;2022-12-10T09:15:55;19.23;;;9.40;;
14778;SDS011;7481;53.750;10.570;2022-12-10T09:18:43;17.93;;;9.17;;
14778;SDS011;7481;53.750;10.570;2022-12-10T09:21:30;18.37;;;9.03;;
14778;SDS011;7481;53.750;10.570;2022-12-10T09:24:18;15.73;;;7.87;;
14778;SDS011;7481;53.750;10.570;2022-12-10T09:27:05;17.40;;;8.60;;
14778;SDS011;7481;53.750;10.570;2022-12-10T09:29:53;18.87;;;9.17;;
14778;SDS011;7481;53.750;10.570;2022-12-10T09:32:40;15.77;;;8.63;;
14778;SDS011;7481;53.750;10.570;2022-12-10T09:35:27;17.23;;;8.67;;
14778;SDS011;7481;53.750;10.570;2022-12-10T09:38:15;14.40;;;8.23;;
14778;SDS011;7481;53.750;10.570;2022-12-10T09:41:04;17.13;;;8.13;;
14778;SDS011;7481;53.750;10.570;2022-12-10T09:44:12;14.60;;;7.57;;
14778;SDS011;7481;53.750;10.570;2022-12-10T09:47:03;15.37;;;7.53;;
14778;SDS011;7481;53.750;10.570;2022-12-10T09:52:43;18.40;;;8.37;;
14778;SDS011;7481;53.750;10.570;2022-12-10T09:55:38;17.80;;;8.73;;
14778;SDS011;7481;53.750;10.570;2022-12-10T09:58:27;17.13;;;8.33;;
14778;SDS011;7481;53.750;10.570;2022-12-10T10:01:16;15.80;;;8.23;;
14778;SDS011;7481;53.750;10.570;2022-12-10T10:04:05;17.73;;;9.17;;
14778;SDS011;7481;53.750;10.570;2022-12-10T10:06:52;14.47;;;7.73;;
14778;SDS011;7481;53.750;10.570;2022-12-10T10:09:40;12.30;;;7.07;;
14778;SDS011;7481;53.750;10.570;2022-12-10T10:12:28;15.87;;;8.13;;
14778;SDS011;7481;53.750;10.570;2022-12-10T10:15:18;15.83;;;7.57;;
14778;SDS011;7481;53.750;10.570;2022-12-10T10:21:19;19.27;;;10.67;;
14778;SDS011;7481;53.750;10.570;2022-12-10T10:24:09;13.83;;;6.97;;
14778;SDS011;7481;53.750;10.570;2022-12-10T10:26:59;14.00;;;7.03;;
14778;SDS011;7481;53.750;10.570;2022-12-10T10:29:49;10.67;;;6.60;;
14778;SDS011;7481;53.750;10.570;2022-12-10T10:35:40;12.83;;;7.47;;
14778;SDS011;7481;53.750;10.570;2022-12-10T10:38:28;14.13;;;7.23;;
14778;SDS011;7481;53.750;10.570;2022-12-10T10:41:17;14.95;;;9.68;;
14778;SDS011;7481;53.750;10.570;2022-12-10T10:44:04;13.33;;;7.33;;
14778;SDS011;7481;53.750;10.570;2022-12-10T10:46:52;16.75;;;9.95;;
14778;SDS011;7481;53.750;10.570;2022-12-10T10:49:43;13.37;;;7.67;;
14778;SDS011;7481;53.750;10.570;2022-12-10T10:52:38;17.33;;;7.80;;
14778;SDS011;7481;53.750;10.570;2022-12-10T10:55:32;16.90;;;8.57;;
14778;SDS011;7481;53.750;10.570;2022-12-10T10:58:22;13.80;;;7.33;;
14778;SDS011;7481;53.750;10.570;2022-12-10T11:01:12;16.60;;;7.80;;
14778;SDS011;7481;53.750;10.570;2022-12-10T11:04:01;10.17;;;6.50;;
14778;SDS011;7481;53.750;10.570;2022-12-10T11:06:48;12.13;;;6.30;;
14778;SDS011;7481;53.750;10.570;2022-12-10T11:09:37;13.17;;;6.60;;
14778;SDS011;7481;53.750;10.570;2022-12-10T11:18:22;14.97;;;6.83;;
14778;SDS011;7481;53.750;10.570;2022-12-10T11:24:04;13.40;;;6.80;;
14778;SDS011;7481;53.750;10.570;2022-12-10T11:27:00;12.90;;;6.63;;
14778;SDS011;7481;53.750;10.570;2022-12-10T11:33:03;10.63;;;6.37;;
14778;SDS011;7481;53.750;10.570;2022-12-10T11:36:07;15.57;;;6.70;;
14778;SDS011;7481;53.750;10.570;2022-12-10T11:39:05;14.30;;;6.80;;
14778;SDS011;7481;53.750;10.570;2022-12-10T11:42:01;12.60;;;6.43;;
14778;SDS011;7481;53.750;10.570;2022-12-10T11:50:48;13.50;;;6.80;;
14778;SDS011;7481;53.750;10.570;2022-12-10T11:54:00;13.57;;;7.43;;
14778;SDS011;7481;53.750;10.570;2022-12-10T11:56:52;14.43;;;6.90;;
14778;SDS011;7481;53.750;10.570;2022-12-10T11:59:50;13.27;;;7.00;;
14778;SDS011;7481;53.750;10.570;2022-12-10T12:03:03;16.60;;;7.27;;
14778;SDS011;7481;53.750;10.570;2022-12-10T12:06:05;12.43;;;7.17;;
14778;SDS011;7481;53.750;10.570;2022-12-10T12:12:02;13.47;;;6.73;;
14778;SDS011;7481;53.750;10.570;2022-12-10T12:14:53;13.60;;;6.83;;
14778;SDS011;7481;53.750;10.570;2022-12-10T12:17:42;13.83;;;6.83;;
14778;SDS011;7481;53.750;10.570;2022-12-10T12:20:32;12.80;;;7.33;;
14778;SDS011;7481;53.750;10.570;2022-12-10T12:23:33;13.17;;;6.50;;
14778;SDS011;7481;53.750;10.570;2022-12-10T12:26:26;13.80;;;7.20;;
14778;SDS011;7481;53.750;10.570;2022-12-10T12:29:19;12.63;;;6.57;;
14778;SDS011;7481;53.750;10.570;2022-12-10T12:32:29;15.57;;;9.52;;
14778;SDS011;7481;53.750;10.570;2022-12-10T12:35:23;14.90;;;6.87;;
14778;SDS011;7481;53.750;10.570;2022-12-10T12:38:31;11.70;;;6.87;;
14778;SDS011;7481;53.750;10.570;2022-12-10T12:41:37;12.10;;;6.20;;
14778;SDS011;7481;53.750;10.570;2022-12-10T12:44:41;14.70;;;7.50;;
14778;SDS011;7481;53.750;10.570;2022-12-10T12:50:33;13.63;;;7.33;;
14778;SDS011;7481;53.750;10.570;2022-12-10T12:53:24;15.33;;;8.27;;
14778;SDS011;7481;53.750;10.570;2022-12-10T13:02:18;12.37;;;6.90;;
14778;SDS011;7481;53.750;10.570;2022-12-10T13:05:14;12.43;;;6.47;;
14778;SDS011;7481;53.750;10.570;2022-12-10T13:16:58;16.63;;;7.83;;
14778;SDS011;7481;53.750;10.570;2022-12-10T13:19:46;14.90;;;7.93;;
14778;SDS011;7481;53.750;10.570;2022-12-10T13:22:41;13.87;;;7.20;;
14778;SDS011;7481;53.750;10.570;2022-12-10T13:25:39;14.53;;;6.80;;
14778;SDS011;7481;53.750;10.570;2022-12-10T13:28:31;12.90;;;7.07;;
14778;SDS011;7481;53.750;10.570;2022-12-10T13:34:23;12.73;;;6.23;;
14778;SDS011;7481;53.750;10.570;2022-12-10T13:37:17;11.30;;;6.63;;
14778;SDS011;7481;53.750;10.570;2022-12-10T13:42:57;12.10;;;6.63;;
14778;SDS011;7481;53.750;10.570;2022-12-10T13:46:24;19.93;;;8.33;;
14778;SDS011;7481;53.750;10.570;2022-12-10T13:49:15;12.23;;;6.73;;
14778;SDS011;7481;53.750;10.570;2022-12-10T13:52:04;13.33;;;6.80;;
14778;SDS011;7481;53.750;10.570;2022-12-10T14:00:57;14.93;;;7.60;;
14778;SDS011;7481;53.750;10.570;2022-12-10T14:04:07;12.13;;;6.83;;
14778;SDS011;7481;53.750;10.570;2022-12-10T14:07:02;16.80;;;8.10;;
14778;SDS011;7481;53.750;10.570;2022-12-10T14:09:51;13.90;;;7.20;;
14778;SDS011;7481;53.750;10.570;2022-12-10T14:12:40;14.70;;;7.00;;
14778;SDS011;7481;53.750;10.570;2022-12-10T14:15:28;15.97;;;8.27;;
14778;SDS011;7481;53.750;10.570;2022-12-10T14:18:17;14.70;;;7.27;;
14778;SDS011;7481;53.750;10.570;2022-12-10T14:21:05;14.87;;;7.77;;
14778;SDS011;7481;53.750;10.570;2022-12-10T14:23:53;12.60;;;6.83;;
14778;SDS011;7481;53.750;10.570;2022-12-10T14:26:42;24.23;;;13.20;;
14778;SDS011;7481;53.750;10.570;2022-12-10T14:29:30;13.33;;;7.10;;
14778;SDS011;7481;53.750;10.570;2022-12-10T14:32:18;13.37;;;7.20;;
14778;SDS011;7481;53.750;10.570;2022-12-10T14:35:07;16.30;;;8.43;;
14778;SDS011;7481;53.750;10.570;2022-12-10T14:37:56;15.83;;;7.90;;
14778;SDS011;7481;53.750;10.570;2022-12-10T14:40:44;15.07;;;7.10;;
14778;SDS011;7481;53.750;10.570;2022-12-10T14:43:34;14.57;;;7.47;;
14778;SDS011;7481;53.750;10.570;2022-12-10T14:46:24;15.77;;;8.20;;
14778;SDS011;7481;53.750;10.570;2022-12-10T14:49:15;18.15;;;10.63;;
14778;SDS011;7481;53.750;10.570;2022-12-10T14:52:02;13.63;;;7.87;;
14778;SDS011;7481;53.750;10.570;2022-12-10T14:54:50;14.37;;;7.03;;
14778;SDS011;7481;53.750;10.570;2022-12-10T14:57:38;14.97;;;7.10;;
14778;SDS011;7481;53.750;10.570;2022-12-10T15:00:27;13.20;;;7.07;;
14778;SDS011;7481;53.750;10.570;2022-12-10T15:03:21;10.90;;;6.53;;
14778;SDS011;7481;53.750;10.570;2022-12-10T15:06:10;10.63;;;6.03;;
14778;SDS011;7481;53.750;10.570;2022-12-10T15:08:57;11.10;;;6.20;;
14778;SDS011;7481;53.750;10.570;2022-12-10T15:11:52;12.27;;;6.20;;
14778;SDS011;7481;53.750;10.570;2022-12-10T15:14:39;11.53;;;6.47;;
14778;SDS011;7481;53.750;10.570;2022-12-10T15:17:33;10.93;;;6.37;;
14778;SDS011;7481;53.750;10.570;2022-12-10T15:20:23;14.93;;;6.57;;
14778;SDS011;7481;53.750;10.570;2022-12-10T15:29:15;11.57;;;6.13;;
14778;SDS011;7481;53.750;10.570;2022-12-10T15:32:14;10.93;;;6.47;;
14778;SDS011;7481;53.750;10.570;2022-12-10T15:35:05;10.50;;;5.90;;
14778;SDS011;7481;53.750;10.570;2022-12-10T15:37:53;11.13;;;6.20;;
14778;SDS011;7481;53.750;10.570;2022-12-10T15:40:42;12.07;;;6.90;;
14778;SDS011;7481;53.750;10.570;2022-12-10T15:43:30;10.33;;;6.20;;
14778;SDS011;7481;53.750;10.570;2022-12-10T15:46:17;11.57;;;6.90;;
14778;SDS011;7481;53.750;10.570;2022-12-10T15:49:05;9.70;;;6.13;;
14778;SDS011;7481;53.750;10.570;2022-12-10T15:51:52;10.33;;;5.83;;
14778;SDS011;7481;53.750;10.570;2022-12-10T15:54:41;10.90;;;5.70;;
14778;SDS011;7481;53.750;10.570;2022-12-10T15:57:33;12.07;;;6.33;;
14778;SDS011;7481;53.750;10.570;2022-12-10T16:00:22;9.73;;;5.43;;
14778;SDS011;7481;53.750;10.570;2022-12-10T16:03:10;10.87;;;5.67;;
14778;SDS011;7481;53.750;10.570;2022-12-10T16:05:59;10.87;;;5.50;;
14778;SDS011;7481;53.750;10.570;2022-12-10T16:08:46;9.17;;;5.83;;
14778;SDS011;7481;53.750;10.570;2022-12-10T16:11:33;10.43;;;5.77;;
14778;SDS011;7481;53.750;10.570;2022-12-10T16:14:21;10.23;;;5.93;;
14778;SDS011;7481;53.750;10.570;2022-12-10T16:17:09;10.97;;;6.27;;
14778;SDS011;7481;53.750;10.570;2022-12-10T16:23:04;10.20;;;5.83;;
14778;SDS011;7481;53.750;10.570;2022-12-10T16:25:54;12.10;;;6.87;;
14778;SDS011;7481;53.750;10.570;2022-12-10T16:28:42;10.87;;;7.20;;
14778;SDS011;7481;53.750;10.570;2022-12-10T16:31:30;12.63;;;6.97;;
14778;SDS011;7481;53.750;10.570;2022-12-10T16:34:17;10.87;;;6.67;;
14778;SDS011;7481;53.750;10.570;2022-12-10T16:37:05;12.50;;;6.97;;
14778;SDS011;7481;53.750;10.570;2022-12-10T16:39:52;9.87;;;5.90;;
14778;SDS011;7481;53.750;10.570;2022-12-10T16:42:45;9.07;;;5.83;;
14778;SDS011;7481;53.750;10.570;2022-12-10T16:45:35;11.83;;;6.43;;
14778;SDS011;7481;53.750;10.570;2022-12-10T16:48:23;12.50;;;7.20;;
14778;SDS011;7481;53.750;10.570;2022-12-10T16:51:24;11.10;;;6.43;;
14778;SDS011;7481;53.750;10.570;2022-12-10T16:54:15;9.90;;;6.33;;
14778;SDS011;7481;53.750;10.570;2022-12-10T16:57:04;13.67;;;7.37;;
14778;SDS011;7481;53.750;10.570;2022-12-10T16:59:51;10.13;;;6.13;;
14778;SDS011;7481;53.750;10.570;2022-12-10T17:02:39;9.70;;;5.73;;
14778;SDS011;7481;53.750;10.570;2022-12-10T17:05:31;12.97;;;7.00;;
14778;SDS011;7481;53.750;10.570;2022-12-10T17:08:19;11.70;;;6.80;;
14778;SDS011;7481;53.750;10.570;2022-12-10T17:11:26;10.80;;;5.97;;
14778;SDS011;7481;53.750;10.570;2022-12-10T17:14:38;12.57;;;6.53;;
14778;SDS011;7481;53.750;10.570;2022-12-10T17:17:26;12.00;;;6.60;;
14778;SDS011;7481;53.750;10.570;2022-12-10T17:20:14;11.73;;;7.00;;
14778;SDS011;7481;53.750;10.570;2022-12-10T17:23:03;10.97;;;6.33;;
14778;SDS011;7481;53.750;10.570;2022-12-10T17:25:51;10.93;;;6.13;;
14778;SDS011;7481;53.750;10.570;2022-12-10T17:28:40;13.83;;;7.87;;
14778;SDS011;7481;53.750;10.570;2022-12-10T17:31:28;14.60;;;7.90;;
14778;SDS011;7481;53.750;10.570;2022-12-10T17:34:15;17.93;;;9.53;;
14778;SDS011;7481;53.750;10.570;2022-12-10T17:37:13;21.00;;;12.13;;
14778;SDS011;7481;53.750;10.570;2022-12-10T17:40:00;17.70;;;9.67;;
14778;SDS011;7481;53.750;10.570;2022-12-10T17:42:48;12.10;;;7.07;;
14778;SDS011;7481;53.750;10.570;2022-12-10T17:45:36;10.93;;;6.47;;
14778;SDS011;7481;53.750;10.570;2022-12-10T17:48:24;11.17;;;6.57;;
14778;SDS011;7481;53.750;10.570;2022-12-10T17:51:11;16.50;;;8.90;;
14778;SDS011;7481;53.750;10.570;2022-12-10T17:53:59;17.77;;;9.47;;
14778;SDS011;7481;53.750;10.570;2022-12-10T17:56:47;13.17;;;7.77;;
14778;SDS011;7481;53.750;10.570;2022-12-10T17:59:34;15.95;;;10.75;;
14778;SDS011;7481;53.750;10.570;2022-12-10T18:02:21;13.77;;;8.40;;
14778;SDS011;7481;53.750;10.570;2022-12-10T18:05:09;12.27;;;7.83;;
14778;SDS011;7481;53.750;10.570;2022-12-10T18:07:56;11.20;;;7.00;;
14778;SDS011;7481;53.750;10.570;2022-12-10T18:10:44;12.07;;;7.07;;